Albatross — 2FDE8 — position and weather

sailwx.info

Track history (hours):
 
Tides and Currents Weather Stations Pressure Air Temp Water Temp Dewpoint Dewpoint Depression Visibility Wind Speed Wind Dir Waves Ship Positions

Albatross

Last reported at 2018-Mar-13 07:25 UTC. Time now 2018-Jun-22 09:19 UTC.
Position N 53°19' W 005°48'.
Warning: this ship's position is months out of date.

Length 16 m; draft 2 m.

Type: Pleasure craft. MMSI: 235090255.

Date/timePositionNaut miles runAvg speedWind from/ knotsBaromVisibWave heightAir tempDewpointWater temp
2018-Mar-13 07:25N 53°19' W 005°48'3 6.9
2018-Mar-13 06:57N 53°16' W 005°44'3 7.2
2018-Mar-13 06:30N 53°14' W 005°41'17 7.1
2018-Mar-13 04:06N 52°57' W 005°33'2 7.1
2018-Mar-13 03:50N 52°55' W 005°33'2 6.9
2018-Mar-13 03:29N 52°53' W 005°33'3 6.5
2018-Mar-13 02:58N 52°50' W 005°33'67 5.4
2018-Mar-12 14:41N 51°43' W 005°24'1 5.0
2018-Mar-12 14:30N 51°42' W 005°24'2 4.9
2018-Mar-12 14:00N 51°41' W 005°20'3 5.4
2018-Mar-12 13:29N 51°40' W 005°16'3 5.9
2018-Mar-12 13:01N 51°40' W 005°11'3 6.0
2018-Mar-12 12:30N 51°42' W 005°07'2 4.5
2018-Mar-12 12:00N 51°42' W 005°04'1 2.3
2018-Mar-12 11:31N 51°43' W 005°02'0 0.2
2018-Mar-12 11:00N 51°43' W 005°02'0 0.0
2018-Mar-12 10:30N 51°43' W 005°02'  
Track history (hours):
 
Tides and Currents Weather Stations Pressure Air Temp Water Temp Dewpoint Dewpoint Depression Visibility Wind Speed Wind Dir Waves Ship Positions

Albatross

Last reported at 2018-Mar-13 07:25 UTC. Time now 2018-Jun-22 09:19 UTC.
Position N 53°19' W 005°48'.
Warning: this ship's position is months out of date.

Length 16 m; draft 2 m.

Type: Pleasure craft. MMSI: 235090255.

Date/timePositionNaut miles runAvg speedWind from/ knotsBaromVisibWave heightAir tempDewpointWater temp
2018-Mar-13 07:25N 53°19' W 005°48'3 6.9
2018-Mar-13 06:57N 53°16' W 005°44'3 7.2
2018-Mar-13 06:30N 53°14' W 005°41'17 7.1
2018-Mar-13 04:06N 52°57' W 005°33'2 7.1
2018-Mar-13 03:50N 52°55' W 005°33'2 6.9
2018-Mar-13 03:29N 52°53' W 005°33'3 6.5
2018-Mar-13 02:58N 52°50' W 005°33'67 5.4
2018-Mar-12 14:41N 51°43' W 005°24'1 5.0
2018-Mar-12 14:30N 51°42' W 005°24'2 4.9
2018-Mar-12 14:00N 51°41' W 005°20'3 5.4
2018-Mar-12 13:29N 51°40' W 005°16'3 5.9
2018-Mar-12 13:01N 51°40' W 005°11'3 6.0
2018-Mar-12 12:30N 51°42' W 005°07'2 4.5
2018-Mar-12 12:00N 51°42' W 005°04'1 2.3
2018-Mar-12 11:31N 51°43' W 005°02'0 0.2
2018-Mar-12 11:00N 51°43' W 005°02'0 0.0
2018-Mar-12 10:30N 51°43' W 005°02'  

Dump ship's entire track history